sensor_id;sensor_type;location;lat;lon;timestamp;pressure;altitude;pressure_sealevel;temperature;humidity
76519;BME280;67029;51.054;13.798;2024-02-16T00:01:09;100432.78;;;13.50;63.38
76519;BME280;67029;51.054;13.798;2024-02-16T00:03:39;100430.64;;;13.51;63.35
76519;BME280;67029;51.054;13.798;2024-02-16T00:06:09;100430.10;;;13.53;63.26
76519;BME280;67029;51.054;13.798;2024-02-16T00:08:39;100432.39;;;13.46;63.68
76519;BME280;67029;51.054;13.798;2024-02-16T00:11:09;100425.72;;;13.40;63.68
76519;BME280;67029;51.054;13.798;2024-02-16T00:13:39;100422.93;;;13.28;64.08
76519;BME280;67029;51.054;13.798;2024-02-16T00:16:09;100421.78;;;13.18;64.49
76519;BME280;67029;51.054;13.798;2024-02-16T00:18:39;100415.20;;;13.27;64.31
76519;BME280;67029;51.054;13.798;2024-02-16T00:21:09;100416.40;;;13.29;64.41
76519;BME280;67029;51.054;13.798;2024-02-16T00:23:39;100414.14;;;13.22;64.61
76519;BME280;67029;51.054;13.798;2024-02-16T00:26:09;100407.38;;;13.18;64.72
76519;BME280;67029;51.054;13.798;2024-02-16T00:28:40;100405.70;;;13.27;64.42
76519;BME280;67029;51.054;13.798;2024-02-16T00:31:09;100395.95;;;13.23;64.61
76519;BME280;67029;51.054;13.798;2024-02-16T00:33:40;100397.12;;;13.33;64.38
76519;BME280;67029;51.054;13.798;2024-02-16T00:36:09;100389.61;;;13.39;64.11
76519;BME280;67029;51.054;13.798;2024-02-16T00:38:40;100392.09;;;13.34;64.21
76519;BME280;67029;51.054;13.798;2024-02-16T00:41:21;100385.30;;;13.40;64.18
76519;BME280;67029;51.054;13.798;2024-02-16T00:43:40;100384.06;;;13.42;64.05
76519;BME280;67029;51.054;13.798;2024-02-16T00:46:10;100382.21;;;13.46;63.93
76519;BME280;67029;51.054;13.798;2024-02-16T00:48:40;100381.96;;;13.27;64.56
76519;BME280;67029;51.054;13.798;2024-02-16T00:51:10;100383.64;;;13.33;64.43
76519;BME280;67029;51.054;13.798;2024-02-16T00:53:40;100382.80;;;13.32;64.64
76519;BME280;67029;51.054;13.798;2024-02-16T00:56:10;100382.64;;;13.46;64.10
76519;BME280;67029;51.054;13.798;2024-02-16T00:58:41;100383.16;;;13.46;64.00
76519;BME280;67029;51.054;13.798;2024-02-16T01:01:10;100381.42;;;13.51;63.97
76519;BME280;67029;51.054;13.798;2024-02-16T01:03:41;100379.05;;;13.51;63.83
76519;BME280;67029;51.054;13.798;2024-02-16T01:06:11;100378.38;;;13.46;63.93
76519;BME280;67029;51.054;13.798;2024-02-16T01:08:41;100372.91;;;13.30;64.53
76519;BME280;67029;51.054;13.798;2024-02-16T01:11:11;100375.69;;;13.35;64.33
76519;BME280;67029;51.054;13.798;2024-02-16T01:13:41;100365.62;;;13.33;64.34
76519;BME280;67029;51.054;13.798;2024-02-16T01:16:11;100367.95;;;13.27;64.56
76519;BME280;67029;51.054;13.798;2024-02-16T01:18:42;100364.54;;;13.42;64.18
76519;BME280;67029;51.054;13.798;2024-02-16T01:21:12;100362.00;;;13.53;63.75
76519;BME280;67029;51.054;13.798;2024-02-16T01:23:42;100363.00;;;13.43;64.17
76519;BME280;67029;51.054;13.798;2024-02-16T01:26:12;100356.70;;;13.44;64.22
76519;BME280;67029;51.054;13.798;2024-02-16T01:28:42;100358.97;;;13.52;63.87
76519;BME280;67029;51.054;13.798;2024-02-16T01:31:12;100363.07;;;13.48;63.98
76519;BME280;67029;51.054;13.798;2024-02-16T01:33:42;100366.32;;;13.53;63.85
76519;BME280;67029;51.054;13.798;2024-02-16T01:36:12;100364.60;;;13.61;63.67
76519;BME280;67029;51.054;13.798;2024-02-16T01:38:42;100365.09;;;13.65;63.45
76519;BME280;67029;51.054;13.798;2024-02-16T01:41:12;100361.22;;;13.70;63.32
76519;BME280;67029;51.054;13.798;2024-02-16T01:43:42;100364.63;;;13.63;63.41
76519;BME280;67029;51.054;13.798;2024-02-16T01:46:12;100365.56;;;13.66;63.39
76519;BME280;67029;51.054;13.798;2024-02-16T01:48:42;100366.69;;;13.66;63.35
76519;BME280;67029;51.054;13.798;2024-02-16T01:51:13;100368.95;;;13.53;63.71
76519;BME280;67029;51.054;13.798;2024-02-16T01:53:42;100373.87;;;13.46;63.93
76519;BME280;67029;51.054;13.798;2024-02-16T01:56:12;100367.52;;;13.36;64.51
76519;BME280;67029;51.054;13.798;2024-02-16T01:58:42;100362.56;;;13.30;64.69
76519;BME280;67029;51.054;13.798;2024-02-16T02:01:12;100361.30;;;13.43;64.24
76519;BME280;67029;51.054;13.798;2024-02-16T02:03:42;100356.23;;;13.49;64.00
76519;BME280;67029;51.054;13.798;2024-02-16T02:06:12;100353.41;;;13.54;63.89
76519;BME280;67029;51.054;13.798;2024-02-16T02:08:42;100349.33;;;13.60;63.59
76519;BME280;67029;51.054;13.798;2024-02-16T02:11:17;100340.88;;;13.66;63.45
76519;BME280;67029;51.054;13.798;2024-02-16T02:13:43;100344.88;;;13.71;63.27
76519;BME280;67029;51.054;13.798;2024-02-16T02:16:14;100336.80;;;13.75;63.10
76519;BME280;67029;51.054;13.798;2024-02-16T02:18:44;100344.16;;;13.83;62.95
76519;BME280;67029;51.054;13.798;2024-02-16T02:21:14;100344.64;;;13.77;62.88
76519;BME280;67029;51.054;13.798;2024-02-16T02:23:44;100339.31;;;13.70;63.04
76519;BME280;67029;51.054;13.798;2024-02-16T02:26:14;100337.20;;;13.70;63.12
76519;BME280;67029;51.054;13.798;2024-02-16T02:28:44;100331.10;;;13.75;62.92
76519;BME280;67029;51.054;13.798;2024-02-16T02:31:14;100333.31;;;13.70;62.99
76519;BME280;67029;51.054;13.798;2024-02-16T02:33:44;100333.55;;;13.51;63.44
76519;BME280;67029;51.054;13.798;2024-02-16T02:36:14;100332.97;;;13.52;63.46
76519;BME280;67029;51.054;13.798;2024-02-16T02:38:44;100321.09;;;13.59;63.26
76519;BME280;67029;51.054;13.798;2024-02-16T02:41:16;100327.38;;;13.56;63.23
76519;BME280;67029;51.054;13.798;2024-02-16T02:43:45;100326.84;;;13.53;63.24
76519;BME280;67029;51.054;13.798;2024-02-16T02:46:15;100322.88;;;13.36;63.74
76519;BME280;67029;51.054;13.798;2024-02-16T02:48:45;100323.70;;;13.50;63.43
76519;BME280;67029;51.054;13.798;2024-02-16T02:51:15;100315.80;;;13.60;63.10
76519;BME280;67029;51.054;13.798;2024-02-16T02:53:45;100320.95;;;13.54;63.14
76519;BME280;67029;51.054;13.798;2024-02-16T02:56:15;100320.00;;;13.43;63.43
76519;BME280;67029;51.054;13.798;2024-02-16T02:58:45;100317.01;;;13.47;63.42
76519;BME280;67029;51.054;13.798;2024-02-16T03:01:15;100324.23;;;13.53;63.11
76519;BME280;67029;51.054;13.798;2024-02-16T03:03:45;100325.95;;;13.61;62.88
76519;BME280;67029;51.054;13.798;2024-02-16T03:06:18;100329.55;;;13.57;62.87
76519;BME280;67029;51.054;13.798;2024-02-16T03:08:47;100336.57;;;13.55;62.88
76519;BME280;67029;51.054;13.798;2024-02-16T03:11:16;100339.77;;;13.46;63.09
76519;BME280;67029;51.054;13.798;2024-02-16T03:13:46;100337.34;;;13.34;63.41
76519;BME280;67029;51.054;13.798;2024-02-16T03:16:16;100338.37;;;13.22;63.88
76519;BME280;67029;51.054;13.798;2024-02-16T03:18:46;100342.58;;;13.20;63.96
76519;BME280;67029;51.054;13.798;2024-02-16T03:21:16;100333.52;;;13.27;63.70
76519;BME280;67029;51.054;13.798;2024-02-16T03:23:47;100334.20;;;13.38;63.38
76519;BME280;67029;51.054;13.798;2024-02-16T03:26:18;100329.02;;;13.31;63.46
76519;BME280;67029;51.054;13.798;2024-02-16T03:28:47;100328.94;;;13.35;63.51
76519;BME280;67029;51.054;13.798;2024-02-16T03:31:18;100323.68;;;13.31;63.46
76519;BME280;67029;51.054;13.798;2024-02-16T03:33:48;100328.06;;;13.27;63.50
76519;BME280;67029;51.054;13.798;2024-02-16T03:36:19;100334.14;;;13.37;63.31
76519;BME280;67029;51.054;13.798;2024-02-16T03:38:49;100317.89;;;13.23;63.55
76519;BME280;67029;51.054;13.798;2024-02-16T03:41:21;100326.37;;;13.27;63.39
76519;BME280;67029;51.054;13.798;2024-02-16T03:43:49;100334.23;;;13.28;63.35
76519;BME280;67029;51.054;13.798;2024-02-16T03:46:19;100332.77;;;13.19;63.51
76519;BME280;67029;51.054;13.798;2024-02-16T03:48:49;100332.48;;;13.23;63.34
76519;BME280;67029;51.054;13.798;2024-02-16T03:51:19;100329.84;;;13.32;63.10
76519;BME280;67029;51.054;13.798;2024-02-16T03:53:49;100330.95;;;13.32;62.93
76519;BME280;67029;51.054;13.798;2024-02-16T03:56:19;100335.36;;;13.35;62.81
76519;BME280;67029;51.054;13.798;2024-02-16T03:58:49;100335.77;;;13.14;63.28
76519;BME280;67029;51.054;13.798;2024-02-16T04:01:19;100338.50;;;13.23;63.15
76519;BME280;67029;51.054;13.798;2024-02-16T04:03:49;100343.40;;;13.13;63.23
76519;BME280;67029;51.054;13.798;2024-02-16T04:06:19;100343.05;;;13.12;63.36
76519;BME280;67029;51.054;13.798;2024-02-16T04:08:50;100334.42;;;13.10;63.39
76519;BME280;67029;51.054;13.798;2024-02-16T04:11:20;100340.39;;;13.09;63.24
76519;BME280;67029;51.054;13.798;2024-02-16T04:13:49;100346.56;;;13.06;63.27
76519;BME280;67029;51.054;13.798;2024-02-16T04:16:19;100350.12;;;12.94;63.53
76519;BME280;67029;51.054;13.798;2024-02-16T04:18:49;100347.17;;;12.91;63.59
76519;BME280;67029;51.054;13.798;2024-02-16T04:21:19;100341.78;;;13.04;63.36
76519;BME280;67029;51.054;13.798;2024-02-16T04:23:50;100337.77;;;13.04;63.18
76519;BME280;67029;51.054;13.798;2024-02-16T04:26:20;100344.61;;;13.09;63.01
76519;BME280;67029;51.054;13.798;2024-02-16T04:28:50;100339.00;;;12.85;63.46
76519;BME280;67029;51.054;13.798;2024-02-16T04:31:20;100336.10;;;12.89;63.56
76519;BME280;67029;51.054;13.798;2024-02-16T04:33:50;100333.03;;;12.71;63.86
76519;BME280;67029;51.054;13.798;2024-02-16T04:36:20;100339.94;;;12.62;64.15
76519;BME280;67029;51.054;13.798;2024-02-16T04:38:50;100335.48;;;12.63;63.99
76519;BME280;67029;51.054;13.798;2024-02-16T04:41:20;100336.59;;;12.64;63.93
76519;BME280;67029;51.054;13.798;2024-02-16T04:43:50;100332.79;;;12.74;63.71
76519;BME280;67029;51.054;13.798;2024-02-16T04:46:20;100340.28;;;12.84;63.44
76519;BME280;67029;51.054;13.798;2024-02-16T04:48:50;100336.34;;;12.97;63.03
76519;BME280;67029;51.054;13.798;2024-02-16T04:51:20;100332.81;;;12.96;62.86
76519;BME280;67029;51.054;13.798;2024-02-16T04:53:50;100332.73;;;12.85;63.02
76519;BME280;67029;51.054;13.798;2024-02-16T04:56:20;100333.56;;;12.66;63.40
76519;BME280;67029;51.054;13.798;2024-02-16T04:58:50;100339.14;;;12.52;63.85
76519;BME280;67029;51.054;13.798;2024-02-16T05:01:20;100338.88;;;12.48;64.15
76519;BME280;67029;51.054;13.798;2024-02-16T05:03:50;100334.52;;;12.58;63.74
76519;BME280;67029;51.054;13.798;2024-02-16T05:06:20;100336.41;;;12.67;63.37
76519;BME280;67029;51.054;13.798;2024-02-16T05:08:50;100337.86;;;12.52;63.66
76519;BME280;67029;51.054;13.798;2024-02-16T05:11:20;100335.32;;;12.43;64.06
76519;BME280;67029;51.054;13.798;2024-02-16T05:13:50;100336.83;;;12.41;63.99
76519;BME280;67029;51.054;13.798;2024-02-16T05:16:20;100342.41;;;12.40;63.93
76519;BME280;67029;51.054;13.798;2024-02-16T05:18:50;100339.95;;;12.28;64.20
76519;BME280;67029;51.054;13.798;2024-02-16T05:21:20;100338.63;;;12.23;64.22
76519;BME280;67029;51.054;13.798;2024-02-16T05:23:50;100346.07;;;12.10;64.74
76519;BME280;67029;51.054;13.798;2024-02-16T05:26:20;100347.67;;;12.06;64.80
76519;BME280;67029;51.054;13.798;2024-02-16T05:28:50;100335.12;;;12.16;64.41
76519;BME280;67029;51.054;13.798;2024-02-16T05:31:20;100335.84;;;12.19;64.36
76519;BME280;67029;51.054;13.798;2024-02-16T05:33:51;100334.31;;;12.19;64.39
76519;BME280;67029;51.054;13.798;2024-02-16T05:36:21;100339.12;;;12.19;64.28
76519;BME280;67029;51.054;13.798;2024-02-16T05:38:51;100336.00;;;12.19;64.18
76519;BME280;67029;51.054;13.798;2024-02-16T05:41:21;100341.78;;;12.21;64.10
76519;BME280;67029;51.054;13.798;2024-02-16T05:43:51;100334.97;;;12.19;64.07
76519;BME280;67029;51.054;13.798;2024-02-16T05:46:21;100336.58;;;12.23;64.00
76519;BME280;67029;51.054;13.798;2024-02-16T05:48:51;100336.25;;;12.31;63.67
76519;BME280;67029;51.054;13.798;2024-02-16T05:51:21;100340.23;;;12.31;63.65
76519;BME280;67029;51.054;13.798;2024-02-16T05:53:51;100340.51;;;12.27;63.60
76519;BME280;67029;51.054;13.798;2024-02-16T05:56:21;100333.55;;;12.34;63.39
76519;BME280;67029;51.054;13.798;2024-02-16T05:58:52;100335.12;;;12.21;63.50
76519;BME280;67029;51.054;13.798;2024-02-16T06:01:22;100333.83;;;12.00;64.02
76519;BME280;67029;51.054;13.798;2024-02-16T06:03:52;100333.50;;;12.00;64.10
76519;BME280;67029;51.054;13.798;2024-02-16T06:06:22;100329.84;;;11.84;64.47
76519;BME280;67029;51.054;13.798;2024-02-16T06:08:52;100327.52;;;11.87;64.43
76519;BME280;67029;51.054;13.798;2024-02-16T06:11:22;100323.52;;;11.88;64.35
76519;BME280;67029;51.054;13.798;2024-02-16T06:13:52;100330.12;;;11.79;64.54
76519;BME280;67029;51.054;13.798;2024-02-16T06:16:22;100336.83;;;11.73;64.64
76519;BME280;67029;51.054;13.798;2024-02-16T06:18:52;100337.08;;;11.82;64.41
76519;BME280;67029;51.054;13.798;2024-02-16T06:21:22;100336.16;;;11.77;64.43
76519;BME280;67029;51.054;13.798;2024-02-16T06:23:52;100333.62;;;11.76;64.43
76519;BME280;67029;51.054;13.798;2024-02-16T06:26:22;100336.52;;;11.86;64.14
76519;BME280;67029;51.054;13.798;2024-02-16T06:28:52;100337.03;;;11.91;63.88
76519;BME280;67029;51.054;13.798;2024-02-16T06:31:22;100343.88;;;11.81;63.95
76519;BME280;67029;51.054;13.798;2024-02-16T06:33:52;100339.34;;;11.90;63.81
76519;BME280;67029;51.054;13.798;2024-02-16T06:36:22;100347.19;;;11.96;63.40
76519;BME280;67029;51.054;13.798;2024-02-16T06:38:52;100345.90;;;12.06;63.15
76519;BME280;67029;51.054;13.798;2024-02-16T06:41:22;100346.30;;;12.08;62.96
76519;BME280;67029;51.054;13.798;2024-02-16T06:43:52;100356.78;;;12.08;62.91
76519;BME280;67029;51.054;13.798;2024-02-16T06:46:22;100353.55;;;11.80;63.45
76519;BME280;67029;51.054;13.798;2024-02-16T06:48:53;100366.44;;;11.84;63.51
76519;BME280;67029;51.054;13.798;2024-02-16T06:51:26;100374.85;;;11.97;63.06
76519;BME280;67029;51.054;13.798;2024-02-16T06:53:53;100371.93;;;12.00;62.92
76519;BME280;67029;51.054;13.798;2024-02-16T06:56:23;100363.66;;;11.89;63.02
76519;BME280;67029;51.054;13.798;2024-02-16T06:58:53;100356.45;;;11.91;62.96
76519;BME280;67029;51.054;13.798;2024-02-16T07:01:23;100349.62;;;11.78;63.23
76519;BME280;67029;51.054;13.798;2024-02-16T07:03:53;100345.23;;;11.86;62.99
76519;BME280;67029;51.054;13.798;2024-02-16T07:06:23;100344.19;;;11.82;63.02
76519;BME280;67029;51.054;13.798;2024-02-16T07:08:53;100340.93;;;11.80;63.10
76519;BME280;67029;51.054;13.798;2024-02-16T07:11:23;100343.62;;;11.97;62.74
76519;BME280;67029;51.054;13.798;2024-02-16T07:13:53;100351.38;;;12.03;62.39
76519;BME280;67029;51.054;13.798;2024-02-16T07:16:23;100353.08;;;11.98;62.45
76519;BME280;67029;51.054;13.798;2024-02-16T07:18:53;100355.80;;;11.89;62.68
76519;BME280;67029;51.054;13.798;2024-02-16T07:21:23;100351.81;;;11.88;62.95
76519;BME280;67029;51.054;13.798;2024-02-16T07:23:53;100354.66;;;11.80;62.96
76519;BME280;67029;51.054;13.798;2024-02-16T07:26:23;100353.20;;;11.76;63.13
76519;BME280;67029;51.054;13.798;2024-02-16T07:28:53;100356.78;;;11.78;63.06
76519;BME280;67029;51.054;13.798;2024-02-16T07:31:23;100348.75;;;11.89;62.90
76519;BME280;67029;51.054;13.798;2024-02-16T07:33:53;100351.41;;;12.06;62.54
76519;BME280;67029;51.054;13.798;2024-02-16T07:36:23;100351.10;;;11.99;62.54
76519;BME280;67029;51.054;13.798;2024-02-16T07:38:56;100352.35;;;12.13;62.57
76519;BME280;67029;51.054;13.798;2024-02-16T07:41:24;100349.91;;;12.39;61.65
76519;BME280;67029;51.054;13.798;2024-02-16T07:43:54;100347.75;;;12.58;61.42
76519;BME280;67029;51.054;13.798;2024-02-16T07:46:24;100342.95;;;12.60;60.63
76519;BME280;67029;51.054;13.798;2024-02-16T07:48:54;100344.02;;;12.57;61.25
76519;BME280;67029;51.054;13.798;2024-02-16T07:51:24;100348.75;;;12.49;61.28
76519;BME280;67029;51.054;13.798;2024-02-16T07:53:54;100347.22;;;12.70;60.94
76519;BME280;67029;51.054;13.798;2024-02-16T07:56:24;100354.38;;;12.63;60.83
76519;BME280;67029;51.054;13.798;2024-02-16T07:58:54;100355.69;;;12.78;61.12
76519;BME280;67029;51.054;13.798;2024-02-16T08:01:24;100358.86;;;13.09;60.35
76519;BME280;67029;51.054;13.798;2024-02-16T08:03:54;100352.08;;;13.32;60.21
76519;BME280;67029;51.054;13.798;2024-02-16T08:06:26;100354.77;;;13.40;59.57
76519;BME280;67029;51.054;13.798;2024-02-16T08:08:54;100347.98;;;13.53;58.92
76519;BME280;67029;51.054;13.798;2024-02-16T08:11:24;100348.04;;;13.51;58.61
76519;BME280;67029;51.054;13.798;2024-02-16T08:13:54;100350.87;;;13.67;59.00
76519;BME280;67029;51.054;13.798;2024-02-16T08:16:24;100358.02;;;14.07;58.47
76519;BME280;67029;51.054;13.798;2024-02-16T08:18:54;100361.41;;;14.20;58.01
76519;BME280;67029;51.054;13.798;2024-02-16T08:21:24;100357.90;;;14.45;57.05
76519;BME280;67029;51.054;13.798;2024-02-16T08:23:54;100357.82;;;14.69;56.25
76519;BME280;67029;51.054;13.798;2024-02-16T08:26:24;100355.05;;;14.59;55.33
76519;BME280;67029;51.054;13.798;2024-02-16T08:28:54;100356.77;;;14.46;55.55
76519;BME280;67029;51.054;13.798;2024-02-16T08:31:24;100348.53;;;14.28;56.11
76519;BME280;67029;51.054;13.798;2024-02-16T08:33:54;100343.50;;;14.46;55.67
76519;BME280;67029;51.054;13.798;2024-02-16T08:36:24;100345.69;;;14.46;55.82
76519;BME280;67029;51.054;13.798;2024-02-16T08:38:54;100350.55;;;14.40;55.58
76519;BME280;67029;51.054;13.798;2024-02-16T08:41:24;100344.80;;;14.33;55.57
76519;BME280;67029;51.054;13.798;2024-02-16T08:43:54;100346.85;;;14.18;55.81
76519;BME280;67029;51.054;13.798;2024-02-16T08:46:25;100338.93;;;14.34;55.79
76519;BME280;67029;51.054;13.798;2024-02-16T08:48:55;100339.39;;;14.41;55.56
76519;BME280;67029;51.054;13.798;2024-02-16T08:51:25;100339.91;;;14.35;55.54
76519;BME280;67029;51.054;13.798;2024-02-16T08:53:55;100338.22;;;14.47;55.34
76519;BME280;67029;51.054;13.798;2024-02-16T08:56:25;100348.78;;;14.51;54.93
76519;BME280;67029;51.054;13.798;2024-02-16T08:58:55;100342.06;;;14.55;54.72
76519;BME280;67029;51.054;13.798;2024-02-16T09:01:34;100343.07;;;14.58;55.08
76519;BME280;67029;51.054;13.798;2024-02-16T09:03:55;100344.61;;;14.55;55.26
76519;BME280;67029;51.054;13.798;2024-02-16T09:06:26;100345.11;;;14.54;54.80
76519;BME280;67029;51.054;13.798;2024-02-16T09:08:56;100337.62;;;14.53;55.09
76519;BME280;67029;51.054;13.798;2024-02-16T09:11:26;100343.19;;;14.66;54.70
76519;BME280;67029;51.054;13.798;2024-02-16T09:13:56;100337.47;;;14.72;54.45
76519;BME280;67029;51.054;13.798;2024-02-16T09:16:26;100354.63;;;14.93;54.40
76519;BME280;67029;51.054;13.798;2024-02-16T09:18:57;100348.33;;;15.09;53.89
76519;BME280;67029;51.054;13.798;2024-02-16T09:21:26;100348.25;;;15.27;53.98
76519;BME280;67029;51.054;13.798;2024-02-16T09:23:56;100347.61;;;15.62;53.85
76519;BME280;67029;51.054;13.798;2024-02-16T09:26:27;100353.58;;;16.00;53.07
76519;BME280;67029;51.054;13.798;2024-02-16T09:28:57;100357.76;;;16.19;51.16
76519;BME280;67029;51.054;13.798;2024-02-16T09:31:27;100367.42;;;16.25;50.58
76519;BME280;67029;51.054;13.798;2024-02-16T09:33:59;100365.98;;;16.26;51.04
76519;BME280;67029;51.054;13.798;2024-02-16T09:36:27;100361.30;;;16.31;51.24
76519;BME280;67029;51.054;13.798;2024-02-16T09:38:57;100353.97;;;16.08;50.47
76519;BME280;67029;51.054;13.798;2024-02-16T09:41:28;100356.61;;;16.12;51.37
76519;BME280;67029;51.054;13.798;2024-02-16T09:44:01;100359.24;;;16.27;51.22
76519;BME280;67029;51.054;13.798;2024-02-16T09:46:29;100357.70;;;16.34;50.99
76519;BME280;67029;51.054;13.798;2024-02-16T09:49:01;100362.97;;;16.43;50.43
76519;BME280;67029;51.054;13.798;2024-02-16T09:51:30;100373.52;;;16.49;50.20
76519;BME280;67029;51.054;13.798;2024-02-16T09:54:00;100367.58;;;16.04;50.17
76519;BME280;67029;51.054;13.798;2024-02-16T09:56:30;100374.75;;;16.01;50.65
76519;BME280;67029;51.054;13.798;2024-02-16T09:59:00;100375.78;;;15.81;50.31
76519;BME280;67029;51.054;13.798;2024-02-16T10:01:30;100367.41;;;15.77;50.88
76519;BME280;67029;51.054;13.798;2024-02-16T10:04:07;100367.87;;;15.98;51.37
76519;BME280;67029;51.054;13.798;2024-02-16T10:06:31;100369.55;;;16.20;50.71
76519;BME280;67029;51.054;13.798;2024-02-16T10:09:01;100366.92;;;16.41;49.48
76519;BME280;67029;51.054;13.798;2024-02-16T10:11:31;100363.92;;;16.57;49.77
76519;BME280;67029;51.054;13.798;2024-02-16T10:14:04;100365.70;;;16.73;49.05
76519;BME280;67029;51.054;13.798;2024-02-16T10:16:32;100366.39;;;16.42;48.91
76519;BME280;67029;51.054;13.798;2024-02-16T10:19:09;100366.13;;;16.22;49.52
76519;BME280;67029;51.054;13.798;2024-02-16T10:21:32;100367.38;;;16.19;49.85
76519;BME280;67029;51.054;13.798;2024-02-16T10:24:11;100373.12;;;16.23;50.08
76519;BME280;67029;51.054;13.798;2024-02-16T10:26:43;100361.16;;;16.02;49.74
76519;BME280;67029;51.054;13.798;2024-02-16T10:29:05;100360.17;;;15.96;50.02
76519;BME280;67029;51.054;13.798;2024-02-16T10:31:34;100350.31;;;16.10;50.21
76519;BME280;67029;51.054;13.798;2024-02-16T10:34:05;100343.88;;;16.18;49.71
76519;BME280;67029;51.054;13.798;2024-02-16T10:36:35;100348.66;;;16.06;49.92
76519;BME280;67029;51.054;13.798;2024-02-16T10:39:06;100346.23;;;16.00;50.03
76519;BME280;67029;51.054;13.798;2024-02-16T10:41:36;100356.56;;;15.62;50.47
76519;BME280;67029;51.054;13.798;2024-02-16T10:44:06;100350.56;;;15.43;51.39
76519;BME280;67029;51.054;13.798;2024-02-16T10:46:36;100351.71;;;15.57;51.23
76519;BME280;67029;51.054;13.798;2024-02-16T10:49:06;100346.03;;;15.53;50.52
76519;BME280;67029;51.054;13.798;2024-02-16T10:51:39;100347.84;;;15.45;50.67
76519;BME280;67029;51.054;13.798;2024-02-16T10:54:07;100356.39;;;15.51;50.49
76519;BME280;67029;51.054;13.798;2024-02-16T10:56:38;100357.59;;;15.66;49.70
76519;BME280;67029;51.054;13.798;2024-02-16T10:59:09;100350.27;;;15.69;50.14
76519;BME280;67029;51.054;13.798;2024-02-16T11:01:41;100347.20;;;15.77;50.01
76519;BME280;67029;51.054;13.798;2024-02-16T11:04:13;100340.91;;;15.96;49.78
76519;BME280;67029;51.054;13.798;2024-02-16T11:06:46;100345.60;;;15.91;49.74
76519;BME280;67029;51.054;13.798;2024-02-16T11:09:10;100341.73;;;16.02;49.73
76519;BME280;67029;51.054;13.798;2024-02-16T11:11:50;100345.94;;;16.27;49.56
76519;BME280;67029;51.054;13.798;2024-02-16T11:14:15;100345.45;;;16.79;48.85
76519;BME280;67029;51.054;13.798;2024-02-16T11:16:47;100349.39;;;17.34;48.06
76519;BME280;67029;51.054;13.798;2024-02-16T11:19:12;100357.85;;;17.69;47.13
76519;BME280;67029;51.054;13.798;2024-02-16T11:21:58;100351.77;;;17.88;46.11
76519;BME280;67029;51.054;13.798;2024-02-16T11:24:13;100359.33;;;17.93;46.10
76519;BME280;67029;51.054;13.798;2024-02-16T11:26:44;100350.39;;;17.92;45.24
76519;BME280;67029;51.054;13.798;2024-02-16T11:29:13;100352.61;;;17.76;45.51
76519;BME280;67029;51.054;13.798;2024-02-16T11:31:44;100351.27;;;17.67;45.80
76519;BME280;67029;51.054;13.798;2024-02-16T11:34:23;100335.45;;;17.41;46.24
76519;BME280;67029;51.054;13.798;2024-02-16T11:36:44;100329.59;;;17.17;46.80
76519;BME280;67029;51.054;13.798;2024-02-16T11:39:14;100334.77;;;16.95;47.06
76519;BME280;67029;51.054;13.798;2024-02-16T11:41:44;100312.66;;;16.90;47.18
76519;BME280;67029;51.054;13.798;2024-02-16T11:44:14;100310.66;;;16.78;47.47
76519;BME280;67029;51.054;13.798;2024-02-16T11:46:44;100315.44;;;16.53;48.06
76519;BME280;67029;51.054;13.798;2024-02-16T11:49:14;100306.94;;;16.53;48.18
76519;BME280;67029;51.054;13.798;2024-02-16T11:51:44;100325.68;;;16.60;47.82
76519;BME280;67029;51.054;13.798;2024-02-16T11:54:14;100328.27;;;16.46;47.89
76519;BME280;67029;51.054;13.798;2024-02-16T11:56:45;100327.53;;;16.47;48.08
76519;BME280;67029;51.054;13.798;2024-02-16T11:59:14;100311.33;;;16.22;48.76
76519;BME280;67029;51.054;13.798;2024-02-16T12:01:51;100314.46;;;15.99;49.16
76519;BME280;67029;51.054;13.798;2024-02-16T12:04:25;100312.86;;;15.94;49.24
76519;BME280;67029;51.054;13.798;2024-02-16T12:06:45;100320.52;;;15.82;49.59
76519;BME280;67029;51.054;13.798;2024-02-16T12:09:16;100320.20;;;15.75;49.84
76519;BME280;67029;51.054;13.798;2024-02-16T12:11:46;100316.64;;;15.71;49.92
76519;BME280;67029;51.054;13.798;2024-02-16T12:14:17;100316.34;;;15.73;49.94
76519;BME280;67029;51.054;13.798;2024-02-16T12:16:51;100317.41;;;15.95;49.88
76519;BME280;67029;51.054;13.798;2024-02-16T12:19:18;100323.86;;;16.11;49.59
76519;BME280;67029;51.054;13.798;2024-02-16T12:21:55;100322.02;;;16.40;49.16
76519;BME280;67029;51.054;13.798;2024-02-16T12:24:19;100327.91;;;16.64;48.99
76519;BME280;67029;51.054;13.798;2024-02-16T12:26:49;100328.95;;;16.74;48.39
76519;BME280;67029;51.054;13.798;2024-02-16T12:29:19;100333.45;;;17.11;48.18
76519;BME280;67029;51.054;13.798;2024-02-16T12:31:49;100337.75;;;17.51;47.58
76519;BME280;67029;51.054;13.798;2024-02-16T12:34:19;100339.90;;;17.98;45.31
76519;BME280;67029;51.054;13.798;2024-02-16T12:36:49;100331.81;;;18.57;45.45
76519;BME280;67029;51.054;13.798;2024-02-16T12:39:19;100334.70;;;19.20;43.79
76519;BME280;67029;51.054;13.798;2024-02-16T12:41:50;100336.58;;;19.66;43.10
76519;BME280;67029;51.054;13.798;2024-02-16T12:44:19;100337.61;;;19.90;42.05
76519;BME280;67029;51.054;13.798;2024-02-16T12:46:50;100327.52;;;19.94;41.28
76519;BME280;67029;51.054;13.798;2024-02-16T12:49:20;100331.92;;;20.18;41.48
76519;BME280;67029;51.054;13.798;2024-02-16T12:51:50;100345.97;;;20.82;41.10
76519;BME280;67029;51.054;13.798;2024-02-16T12:54:20;100336.20;;;21.18;39.32